createdAt,value
2019-03-01T00:02:28.960Z,10.60
2019-03-01T00:05:22.555Z,10.60
2019-03-01T00:08:10.983Z,10.60
2019-03-01T00:11:00.443Z,10.60
2019-03-01T00:14:00.867Z,10.60
2019-03-01T00:16:50.235Z,10.60
2019-03-01T00:19:27.478Z,10.60
2019-03-01T00:22:24.927Z,10.60
2019-03-01T00:25:09.211Z,10.60
2019-03-01T00:28:06.238Z,10.60
2019-03-01T00:30:43.485Z,10.60
2019-03-01T00:33:34.943Z,10.50
2019-03-01T00:36:30.623Z,10.60
2019-03-01T00:39:27.093Z,10.50
2019-03-01T00:42:16.691Z,10.50
2019-03-01T00:44:48.393Z,10.50
2019-03-01T00:47:20.125Z,10.50
2019-03-01T00:49:50.241Z,10.50
2019-03-01T00:52:21.295Z,10.50
2019-03-01T00:54:51.645Z,10.50
2019-03-01T00:57:21.343Z,10.50
2019-03-01T00:59:51.267Z,10.50
2019-03-01T01:02:21.197Z,10.40
2019-03-01T01:04:50.805Z,10.40
2019-03-01T01:07:21.840Z,10.40
2019-03-01T01:09:51.535Z,10.40
2019-03-01T01:12:22.555Z,10.40
2019-03-01T01:14:52.620Z,10.30
2019-03-01T01:17:22.501Z,10.30
2019-03-01T01:19:52.139Z,10.30
2019-03-01T01:22:23.271Z,10.20
2019-03-01T01:24:54.248Z,10.20
2019-03-01T01:27:24.243Z,10.20
2019-03-01T01:29:54.252Z,10.10
2019-03-01T01:32:23.825Z,10.10
2019-03-01T01:34:54.807Z,10.10
2019-03-01T01:37:24.611Z,10.00
2019-03-01T01:39:55.601Z,10.00
2019-03-01T01:42:26.338Z,9.90
2019-03-01T01:44:57.328Z,9.90
2019-03-01T01:47:28.672Z,9.80
2019-03-01T01:49:58.481Z,9.80
2019-03-01T01:52:28.852Z,9.80
2019-03-01T01:54:58.770Z,9.80
2019-03-01T01:57:28.325Z,9.80
2019-03-01T01:59:58.181Z,9.80
2019-03-01T02:02:28.631Z,9.80
2019-03-01T02:04:58.275Z,9.80
2019-03-01T02:07:27.936Z,9.80
2019-03-01T02:09:59.004Z,9.80
2019-03-01T02:12:29.368Z,9.80
2019-03-01T02:14:58.886Z,9.80
2019-03-01T02:17:28.612Z,9.80
2019-03-01T02:19:58.538Z,9.80
2019-03-01T02:22:28.286Z,9.80
2019-03-01T02:24:59.301Z,9.80
2019-03-01T02:27:30.360Z,9.80
2019-03-01T02:30:01.593Z,9.80
2019-03-01T02:32:41.471Z,9.80
2019-03-01T02:35:13.200Z,9.80
2019-03-01T02:37:42.695Z,9.80
2019-03-01T02:40:14.398Z,9.80
2019-03-01T02:42:45.513Z,9.70
2019-03-01T02:45:20.659Z,9.70
2019-03-01T02:47:51.668Z,9.70
2019-03-01T02:50:21.392Z,9.70
2019-03-01T02:52:50.915Z,9.70
2019-03-01T02:55:21.452Z,9.70
2019-03-01T02:57:51.312Z,9.70
2019-03-01T03:00:41.840Z,9.70
2019-03-01T03:03:32.378Z,9.70
2019-03-01T03:06:42.114Z,9.70
2019-03-01T03:09:32.900Z,9.70
2019-03-01T03:12:41.171Z,9.70
2019-03-01T03:18:48.123Z,9.70
2019-03-01T03:21:56.406Z,9.70
2019-03-01T03:24:46.851Z,9.70
2019-03-01T03:27:37.247Z,9.60
2019-03-01T03:30:28.109Z,9.60
2019-03-01T03:33:37.957Z,9.60
2019-03-01T03:36:28.438Z,9.50
2019-03-01T03:39:18.964Z,9.40
2019-03-01T03:42:09.445Z,9.30
2019-03-01T03:45:18.137Z,9.30
2019-03-01T03:48:01.516Z,9.30
2019-03-01T03:50:43.542Z,9.30
2019-03-01T03:53:26.449Z,9.30
2019-03-01T03:56:08.139Z,9.30
2019-03-01T03:58:50.482Z,9.20
2019-03-01T04:01:32.490Z,9.20
2019-03-01T04:04:14.231Z,9.10
2019-03-01T04:06:56.417Z,8.90
2019-03-01T04:09:38.257Z,8.90
2019-03-01T04:12:20.416Z,8.80
2019-03-01T04:15:02.110Z,8.80
2019-03-01T04:17:44.331Z,8.80
2019-03-01T04:20:26.466Z,8.70
2019-03-01T04:23:08.840Z,8.70
2019-03-01T04:25:51.381Z,8.60
2019-03-01T04:28:33.153Z,8.60
2019-03-01T04:31:15.032Z,8.60
2019-03-01T04:33:57.200Z,8.70
2019-03-01T04:36:39.526Z,8.60
2019-03-01T04:39:21.801Z,8.70
2019-03-01T04:42:04.312Z,8.70
2019-03-01T04:44:46.292Z,8.70
2019-03-01T04:47:28.647Z,8.70
2019-03-01T04:50:11.233Z,8.60
2019-03-01T04:52:53.009Z,8.60
2019-03-01T04:55:34.819Z,8.60
2019-03-01T04:58:16.929Z,8.50
2019-03-01T05:00:59.029Z,8.60
2019-03-01T05:03:28.647Z,8.60
2019-03-01T05:06:19.112Z,8.60
2019-03-01T05:09:09.659Z,8.60
2019-03-01T05:15:32.113Z,8.60
2019-03-01T05:18:22.533Z,8.60
2019-03-01T05:21:31.203Z,8.70
2019-03-01T05:24:21.939Z,8.70
2019-03-01T05:27:12.385Z,8.70
2019-03-01T05:30:03.177Z,8.50
2019-03-01T05:32:53.589Z,8.70
2019-03-01T05:35:44.048Z,8.70
2019-03-01T05:41:42.582Z,8.70
2019-03-01T05:44:33.077Z,8.80
2019-03-01T05:50:37.460Z,8.80
2019-03-01T05:53:28.097Z,8.80
2019-03-01T05:56:18.573Z,8.80
2019-03-01T05:59:28.467Z,8.80
2019-03-01T06:02:38.534Z,8.60
2019-03-01T06:05:29.156Z,8.50
2019-03-01T06:08:40.372Z,8.40
2019-03-01T06:11:51.907Z,8.30
2019-03-01T06:15:01.717Z,8.20
2019-03-01T06:18:27.970Z,8.10
2019-03-01T06:21:42.661Z,8.10
2019-03-01T06:24:52.541Z,8.10
2019-03-01T06:28:02.493Z,8.10
2019-03-01T06:31:12.502Z,8.10
2019-03-01T06:34:23.881Z,8.10
2019-03-01T06:37:33.760Z,8.20
2019-03-01T06:41:02.865Z,8.20
2019-03-01T06:44:11.586Z,8.20
2019-03-01T06:47:22.996Z,8.20
2019-03-01T06:50:25.419Z,8.20
2019-03-01T06:53:07.520Z,8.30
2019-03-01T06:55:49.640Z,8.30
2019-03-01T06:58:32.170Z,8.30
2019-03-01T07:01:15.122Z,8.40
2019-03-01T07:03:58.517Z,8.50
2019-03-01T07:06:40.923Z,8.50
2019-03-01T07:09:22.948Z,8.50
2019-03-01T07:12:04.798Z,8.50
2019-03-01T07:14:47.615Z,8.50
2019-03-01T07:17:31.432Z,8.60
2019-03-01T07:20:14.835Z,8.60
2019-03-01T07:22:56.898Z,8.60
2019-03-01T07:25:39.505Z,8.60
2019-03-01T07:28:21.352Z,8.60
2019-03-01T07:31:03.345Z,8.50
2019-03-01T07:33:45.450Z,8.50
2019-03-01T07:36:27.489Z,8.50
2019-03-01T07:39:09.423Z,8.50
2019-03-01T07:41:51.436Z,8.50
2019-03-01T07:44:33.493Z,8.50
2019-03-01T07:47:15.813Z,8.40
2019-03-01T07:49:57.940Z,8.40
2019-03-01T07:52:39.794Z,8.40
2019-03-01T07:55:25.044Z,8.40
2019-03-01T07:58:06.688Z,8.40
2019-03-01T08:00:53.373Z,8.30
2019-03-01T08:03:32.432Z,8.20
2019-03-01T08:06:14.624Z,8.20
2019-03-01T08:08:57.098Z,8.10
2019-03-01T08:11:39.608Z,8.00
2019-03-01T08:14:24.676Z,8.00
2019-03-01T08:17:05.035Z,8.00
2019-03-01T08:19:47.277Z,7.90
2019-03-01T08:22:29.818Z,7.90
2019-03-01T08:25:12.065Z,7.90
2019-03-01T08:27:54.015Z,7.90
2019-03-01T08:30:36.883Z,7.90
2019-03-01T08:33:19.565Z,7.80
2019-03-01T08:36:02.444Z,7.70
2019-03-01T08:38:45.354Z,7.60
2019-03-01T08:41:27.191Z,7.60
2019-03-01T08:44:09.525Z,7.60
2019-03-01T08:46:52.058Z,7.60
2019-03-01T08:49:34.664Z,7.60
2019-03-01T08:52:16.515Z,7.70
2019-03-01T08:55:03.416Z,7.60
2019-03-01T08:57:44.453Z,7.70
2019-03-01T09:00:28.188Z,7.70
2019-03-01T09:03:10.086Z,7.70
2019-03-01T09:05:53.015Z,7.70
2019-03-01T09:08:34.896Z,7.70
2019-03-01T09:11:16.850Z,7.70
2019-03-01T09:13:59.047Z,7.70
2019-03-01T09:16:41.236Z,7.70
2019-03-01T09:19:25.289Z,7.70
2019-03-01T09:22:07.765Z,7.80
2019-03-01T09:24:50.019Z,7.80
2019-03-01T09:27:31.704Z,7.80
2019-03-01T09:30:15.155Z,7.90
2019-03-01T09:32:57.968Z,8.00
2019-03-01T09:38:53.822Z,8.10
2019-03-01T09:41:36.625Z,8.20
2019-03-01T09:44:19.874Z,8.20
2019-03-01T09:47:02.609Z,8.30
2019-03-01T09:49:45.026Z,8.30
2019-03-01T09:52:27.879Z,8.80
2019-03-01T09:55:10.051Z,9.00
2019-03-01T09:57:52.012Z,9.20
2019-03-01T10:00:34.325Z,9.10
2019-03-01T10:03:16.725Z,8.80
2019-03-01T10:05:59.152Z,8.60
2019-03-01T10:08:41.648Z,8.50
2019-03-01T10:11:11.892Z,8.30
2019-03-01T10:14:00.938Z,8.30
2019-03-01T10:17:12.413Z,8.30
2019-03-01T10:20:02.993Z,8.30
2019-03-01T10:22:53.664Z,8.30
2019-03-01T10:25:44.073Z,8.30
2019-03-01T10:28:34.760Z,8.30
2019-03-01T10:31:25.224Z,8.30
2019-03-01T10:34:15.760Z,8.30
2019-03-01T10:40:34.137Z,8.30
2019-03-01T10:43:24.809Z,8.30
2019-03-01T10:46:15.255Z,8.40
2019-03-01T10:48:58.303Z,8.30
2019-03-01T10:51:40.764Z,8.30
2019-03-01T10:54:22.919Z,8.40
2019-03-01T10:57:04.705Z,8.40
2019-03-01T10:59:47.310Z,8.30
2019-03-01T11:02:30.301Z,8.40
2019-03-01T11:05:12.498Z,8.40
2019-03-01T11:07:54.859Z,8.30
2019-03-01T11:10:36.854Z,8.30
2019-03-01T11:13:18.886Z,8.30
2019-03-01T11:16:00.877Z,8.20
2019-03-01T11:18:43.116Z,8.20
2019-03-01T11:21:25.142Z,8.10
2019-03-01T11:24:07.927Z,8.10
2019-03-01T11:26:50.420Z,8.20
2019-03-01T11:29:32.626Z,8.20
2019-03-01T11:32:15.309Z,8.20
2019-03-01T11:34:58.509Z,8.20
2019-03-01T11:37:40.772Z,8.20
2019-03-01T11:40:13.378Z,8.10
2019-03-01T11:42:43.365Z,8.10
2019-03-01T11:45:13.342Z,8.00
2019-03-01T11:47:43.319Z,8.10
2019-03-01T11:50:19.618Z,8.10
2019-03-01T11:52:49.497Z,8.10
2019-03-01T11:55:21.208Z,8.10
2019-03-01T11:57:51.349Z,8.20
2019-03-01T12:00:25.017Z,8.10
2019-03-01T12:02:54.901Z,8.00
2019-03-01T12:05:25.928Z,8.00
2019-03-01T12:07:55.563Z,7.90
2019-03-01T12:10:28.078Z,7.90
2019-03-01T12:12:57.753Z,8.00
2019-03-01T12:15:27.469Z,8.00
2019-03-01T12:17:57.619Z,8.10
2019-03-01T12:20:46.846Z,8.10
2019-03-01T12:23:37.242Z,8.10
2019-03-01T12:26:28.043Z,8.10
2019-03-01T12:29:18.559Z,8.10
2019-03-01T12:32:09.010Z,8.00
2019-03-01T12:34:59.403Z,8.00
2019-03-01T12:37:49.899Z,8.00
2019-03-01T12:40:33.624Z,8.00
2019-03-01T12:43:16.510Z,8.00
2019-03-01T12:45:58.057Z,8.00
2019-03-01T12:48:40.204Z,7.90
2019-03-01T12:51:22.346Z,7.90
2019-03-01T12:54:04.385Z,7.90
2019-03-01T12:56:46.604Z,8.00
2019-03-01T12:59:16.435Z,8.00
2019-03-01T13:02:06.976Z,8.00
2019-03-01T13:04:57.419Z,8.00
2019-03-01T13:07:47.971Z,7.90
2019-03-01T13:10:40.373Z,8.00
2019-03-01T13:13:48.353Z,8.00
2019-03-01T13:16:39.020Z,8.00
2019-03-01T13:19:29.505Z,8.00
2019-03-01T13:22:19.981Z,8.00
2019-03-01T13:25:10.692Z,8.10
2019-03-01T13:28:01.102Z,8.00
2019-03-01T13:30:51.553Z,8.10
2019-03-01T13:33:41.960Z,8.10
2019-03-01T13:36:32.450Z,8.10
2019-03-01T13:39:23.116Z,8.20
2019-03-01T13:42:14.074Z,8.20
2019-03-01T13:45:24.413Z,8.30
2019-03-01T13:48:15.746Z,8.30
2019-03-01T13:51:25.159Z,8.40
2019-03-01T13:54:15.630Z,8.40
2019-03-01T13:57:08.329Z,8.30
2019-03-01T14:00:16.752Z,8.40
2019-03-01T14:03:07.177Z,8.30
2019-03-01T14:05:57.629Z,8.20
2019-03-01T14:08:48.068Z,8.20
2019-03-01T14:11:31.449Z,8.20
2019-03-01T14:14:13.404Z,8.20
2019-03-01T14:16:55.689Z,8.30
2019-03-01T14:19:38.997Z,8.20
2019-03-01T14:22:22.445Z,8.20
2019-03-01T14:25:05.252Z,8.10
2019-03-01T14:27:52.857Z,8.10
2019-03-01T14:30:36.077Z,8.10
2019-03-01T14:33:18.771Z,8.00
2019-03-01T14:36:02.676Z,8.00
2019-03-01T14:38:44.826Z,8.00
2019-03-01T14:41:27.779Z,8.00
2019-03-01T14:44:10.410Z,8.10
2019-03-01T14:46:52.946Z,8.10
2019-03-01T14:49:37.395Z,8.00
2019-03-01T14:52:21.332Z,8.00
2019-03-01T14:55:04.554Z,8.00
2019-03-01T14:57:47.059Z,8.00
2019-03-01T15:00:29.447Z,8.00
2019-03-01T15:03:16.018Z,8.00
2019-03-01T15:05:55.286Z,8.00
2019-03-01T15:08:40.557Z,8.00
2019-03-01T15:11:21.301Z,8.00
2019-03-01T15:14:03.363Z,8.00
2019-03-01T15:16:45.700Z,8.00
2019-03-01T15:19:28.220Z,8.00
2019-03-01T15:22:12.952Z,7.90
2019-03-01T15:24:54.369Z,7.90
2019-03-01T15:27:39.726Z,7.90
2019-03-01T15:30:23.110Z,7.90
2019-03-01T15:33:04.888Z,7.90
2019-03-01T15:35:47.789Z,7.90
2019-03-01T15:38:30.742Z,7.90
2019-03-01T15:41:13.698Z,7.90
2019-03-01T15:43:56.046Z,7.90
2019-03-01T15:46:38.295Z,7.90
2019-03-01T15:49:23.607Z,7.90
2019-03-01T15:52:04.481Z,7.90
2019-03-01T15:54:46.148Z,8.00
2019-03-01T15:57:28.093Z,8.00
2019-03-01T16:00:09.939Z,8.00
2019-03-01T16:02:53.192Z,8.00
2019-03-01T16:05:37.386Z,7.90
2019-03-01T16:08:19.138Z,7.90
2019-03-01T16:11:00.825Z,7.90
2019-03-01T16:13:47.749Z,7.90
2019-03-01T16:16:26.529Z,8.00
2019-03-01T16:19:11.077Z,8.00
2019-03-01T16:21:52.252Z,7.90
2019-03-01T16:24:33.988Z,8.00
2019-03-01T16:27:16.292Z,8.00
2019-03-01T16:29:58.817Z,8.00
2019-03-01T16:32:40.855Z,8.00
2019-03-01T16:35:29.392Z,8.00
2019-03-01T16:38:19.820Z,8.00
2019-03-01T16:41:10.294Z,8.00
2019-03-01T16:44:01.362Z,8.00
2019-03-01T16:47:10.681Z,7.90
2019-03-01T16:50:02.774Z,8.00
2019-03-01T16:53:11.325Z,7.90
2019-03-01T16:56:02.557Z,7.80
2019-03-01T16:59:11.659Z,7.80
2019-03-01T17:05:15.880Z,7.80
2019-03-01T17:08:06.333Z,7.80
2019-03-01T17:11:14.592Z,7.70
2019-03-01T17:14:05.238Z,7.70
2019-03-01T17:16:56.408Z,7.70
2019-03-01T17:20:26.416Z,7.70
2019-03-01T17:23:15.415Z,7.80
2019-03-01T17:26:05.808Z,7.80
2019-03-01T17:28:56.337Z,7.80
2019-03-01T17:31:46.753Z,7.80
2019-03-01T17:34:37.434Z,7.80
2019-03-01T17:37:45.735Z,7.80
2019-03-01T17:40:17.742Z,7.80
2019-03-01T17:43:06.632Z,7.80
2019-03-01T17:45:57.932Z,7.90
2019-03-01T17:48:47.552Z,7.90
2019-03-01T17:51:36.467Z,7.90
2019-03-01T17:54:22.247Z,7.90
2019-03-01T17:57:03.660Z,7.90
2019-03-01T17:59:48.277Z,7.90
2019-03-01T18:02:29.316Z,7.90
2019-03-01T18:05:11.103Z,7.90
2019-03-01T18:07:52.961Z,7.90
2019-03-01T18:10:34.782Z,7.80
2019-03-01T18:13:16.995Z,7.70
2019-03-01T18:15:58.757Z,7.80
2019-03-01T18:18:42.423Z,7.90
2019-03-01T18:21:23.455Z,7.80
2019-03-01T18:24:05.146Z,7.80
2019-03-01T18:26:46.624Z,7.80
2019-03-01T18:29:28.473Z,7.80
2019-03-01T18:32:10.920Z,7.70
2019-03-01T18:34:53.034Z,7.70
2019-03-01T18:37:35.306Z,7.70
2019-03-01T18:40:17.802Z,7.70
2019-03-01T18:42:59.979Z,7.70
2019-03-01T18:45:43.097Z,7.70
2019-03-01T18:48:24.689Z,7.70
2019-03-01T18:50:54.105Z,7.70
2019-03-01T18:53:25.081Z,7.70
2019-03-01T18:55:54.603Z,7.70
2019-03-01T18:58:24.080Z,7.70
2019-03-01T19:00:54.149Z,7.70
2019-03-01T19:03:23.514Z,7.70
2019-03-01T19:05:53.061Z,7.70
2019-03-01T19:08:24.126Z,7.70
2019-03-01T19:10:54.449Z,7.70
2019-03-01T19:13:43.561Z,7.70
2019-03-01T19:16:34.171Z,7.70
2019-03-01T19:19:23.978Z,7.70
2019-03-01T19:22:32.970Z,7.70
2019-03-01T19:25:25.409Z,7.60
2019-03-01T19:28:33.650Z,7.70
2019-03-01T19:31:24.539Z,7.70
2019-03-01T19:37:41.926Z,7.70
2019-03-01T19:40:21.308Z,7.70
2019-03-01T19:42:50.734Z,7.70
2019-03-01T19:45:21.135Z,7.60
2019-03-01T19:47:50.629Z,7.60
2019-03-01T19:50:25.042Z,7.60
2019-03-01T19:52:55.330Z,7.60
2019-03-01T19:55:25.050Z,7.60
2019-03-01T19:57:54.546Z,7.60
2019-03-01T20:00:31.830Z,7.60
2019-03-01T20:03:01.181Z,7.50
2019-03-01T20:05:33.181Z,7.50
2019-03-01T20:08:03.416Z,7.60
2019-03-01T20:10:52.491Z,7.60
2019-03-01T20:16:49.624Z,7.50
2019-03-01T20:19:58.110Z,7.60
2019-03-01T20:23:07.856Z,7.60
2019-03-01T20:25:39.106Z,7.60
2019-03-01T20:28:11.597Z,7.60
2019-03-01T20:30:39.683Z,7.50
2019-03-01T20:33:09.337Z,7.50
2019-03-01T20:35:38.797Z,7.50
2019-03-01T20:38:08.245Z,7.50
2019-03-01T20:40:37.638Z,7.50
2019-03-01T20:43:07.281Z,7.50
2019-03-01T20:45:38.695Z,7.50
2019-03-01T20:48:08.263Z,7.50
2019-03-01T20:50:37.734Z,7.50
2019-03-01T20:53:10.054Z,7.60
2019-03-01T20:55:38.567Z,7.50
2019-03-01T20:58:08.293Z,7.50
2019-03-01T21:00:37.770Z,7.50
2019-03-01T21:03:30.009Z,7.50
2019-03-01T21:06:37.359Z,7.40
2019-03-01T21:09:47.428Z,7.40
2019-03-01T21:12:37.892Z,7.30
2019-03-01T21:15:27.227Z,7.30
2019-03-01T21:18:16.069Z,7.30
2019-03-01T21:21:04.961Z,7.40
2019-03-01T21:23:53.906Z,7.30
2019-03-01T21:27:03.698Z,7.20
2019-03-01T21:30:14.754Z,7.20
2019-03-01T21:33:05.299Z,7.20
2019-03-01T21:35:55.975Z,7.20
2019-03-01T21:38:25.464Z,7.20
2019-03-01T21:41:14.518Z,7.20
2019-03-01T21:44:03.650Z,7.20
2019-03-01T21:46:54.127Z,7.20
2019-03-01T21:49:45.182Z,7.20
2019-03-01T21:52:46.534Z,7.10
2019-03-01T21:55:29.781Z,7.10
2019-03-01T21:58:11.770Z,7.10
2019-03-01T22:00:41.941Z,7.10
2019-03-01T22:03:11.580Z,7.10
2019-03-01T22:05:41.319Z,7.10
2019-03-01T22:08:30.243Z,7.20
2019-03-01T22:11:20.833Z,7.20
2019-03-01T22:14:29.172Z,7.20
2019-03-01T22:20:27.893Z,7.20
2019-03-01T22:26:31.876Z,7.20
2019-03-01T22:29:20.937Z,7.20
2019-03-01T22:32:10.545Z,7.20
2019-03-01T22:35:20.167Z,7.20
2019-03-01T22:37:49.848Z,7.20
2019-03-01T22:40:19.558Z,7.20
2019-03-01T22:43:08.827Z,7.20
2019-03-01T22:45:59.466Z,7.20
2019-03-01T22:48:53.043Z,7.20
2019-03-01T22:51:58.474Z,7.20
2019-03-01T22:54:40.770Z,7.20
2019-03-01T22:57:26.070Z,7.30
2019-03-01T23:00:06.290Z,7.30
2019-03-01T23:02:51.729Z,7.30
2019-03-01T23:05:35.544Z,7.30
2019-03-01T23:08:18.568Z,7.30
2019-03-01T23:10:48.039Z,7.30
2019-03-01T23:13:20.694Z,7.30
2019-03-01T23:16:08.034Z,7.30
2019-03-01T23:19:17.065Z,7.30
2019-03-01T23:21:46.572Z,7.30
2019-03-01T23:24:35.999Z,7.30
2019-03-01T23:27:44.370Z,7.30
2019-03-01T23:30:33.212Z,7.30
2019-03-01T23:33:23.178Z,7.30
2019-03-01T23:36:12.036Z,7.30
2019-03-01T23:39:01.276Z,7.30
2019-03-01T23:41:50.243Z,7.30
2019-03-01T23:44:41.499Z,7.30
2019-03-01T23:47:49.204Z,7.30
2019-03-01T23:50:38.065Z,7.30
2019-03-01T23:53:19.713Z,7.30
2019-03-01T23:56:01.886Z,7.30
2019-03-01T23:58:44.301Z,7.30
